Time;durP1;ratioP1;P1;durP2;ratioP2;P2;SDS_P1;SDS_P2;PMS_P1;PMS_P2;Temp;Humidity;BMP_temperature;BMP_pressure;BME280_temperature;BME280_humidity;BME280_pressure;Samples;Min_cycle;Max_cycle;Signal;HPM_P1;HPM_P2
2021/04/19 00:01:55;;;;;;;19.85;11.75;;;;;;;;;;5083292;28;20645;-66
2021/04/19 00:04:21;;;;;;;18.85;12.07;;;;;;;;;;5076865;28;20048;-66
2021/04/19 00:06:47;;;;;;;17.80;10.80;;;;;;;;;;5077175;28;20040;-66
2021/04/19 00:09:13;;;;;;;20.33;12.02;;;;;;;;;;5080637;28;20379;-66
2021/04/19 00:11:39;;;;;;;20.73;13.32;;;;;;;;;;5082924;28;20048;-66
2021/04/19 00:14:05;;;;;;;24.48;13.40;;;;;;;;;;5079121;28;20098;-66
2021/04/19 00:16:32;;;;;;;23.30;12.95;;;;;;;;;;5082284;28;20048;-66
2021/04/19 00:18:58;;;;;;;18.42;10.98;;;;;;;;;;5085824;28;20047;-66
2021/04/19 00:21:24;;;;;;;17.50;10.88;;;;;;;;;;5082748;28;20053;-66
2021/04/19 00:23:50;;;;;;;18.33;11.27;;;;;;;;;;5081655;28;20036;-66
2021/04/19 00:26:16;;;;;;;18.95;10.85;;;;;;;;;;5080065;28;20063;-66
2021/04/19 00:28:42;;;;;;;21.60;12.90;;;;;;;;;;5076783;28;20057;-66
2021/04/19 00:31:09;;;;;;;21.85;13.05;;;;;;;;;;5081339;28;20132;-66
2021/04/19 00:33:35;;;;;;;21.52;12.05;;;;;;;;;;5080042;28;20036;-67
2021/04/19 00:36:02;;;;;;;18.80;11.02;;;;;;;;;;5085075;28;20518;-67
2021/04/19 00:38:28;;;;;;;20.65;11.45;;;;;;;;;;5086155;28;20048;-66
2021/04/19 00:40:54;;;;;;;17.77;11.70;;;;;;;;;;5083689;28;20044;-66
2021/04/19 00:43:21;;;;;;;19.83;11.50;;;;;;;;;;5085432;28;20044;-66
2021/04/19 00:45:48;;;;;;;18.70;11.02;;;;;;;;;;5084644;28;20052;-66
2021/04/19 00:48:14;;;;;;;20.75;12.05;;;;;;;;;;5080119;28;20052;-66
2021/04/19 00:50:40;;;;;;;18.67;11.65;;;;;;;;;;5079746;28;20093;-66
2021/04/19 00:53:06;;;;;;;21.08;12.07;;;;;;;;;;5084743;28;20378;-67
2021/04/19 00:55:32;;;;;;;23.30;13.77;;;;;;;;;;5083857;28;20101;-66
2021/04/19 00:57:59;;;;;;;18.70;12.63;;;;;;;;;;5076637;28;20044;-66
2021/04/19 01:00:27;;;;;;;22.75;13.13;;;;;;;;;;5084324;28;20113;-66
2021/04/19 01:02:53;;;;;;;19.58;11.85;;;;;;;;;;5080471;28;20043;-66
2021/04/19 01:05:24;;;;;;;23.23;12.93;;;;;;;;;;5082794;28;20051;-66
2021/04/19 01:07:51;;;;;;;26.23;13.82;;;;;;;;;;5081190;28;20070;-66
2021/04/19 01:10:17;;;;;;;20.25;12.20;;;;;;;;;;5080362;28;20060;-67
2021/04/19 01:12:43;;;;;;;21.52;12.65;;;;;;;;;;5081381;28;20048;-67
2021/04/19 01:15:13;;;;;;;21.05;13.13;;;;;;;;;;5077501;28;20049;-67
2021/04/19 01:17:39;;;;;;;24.67;14.18;;;;;;;;;;5081277;28;20048;-66
2021/04/19 01:20:07;;;;;;;19.38;11.50;;;;;;;;;;5079213;28;20048;-67
2021/04/19 01:22:35;;;;;;;24.13;14.25;;;;;;;;;;5083205;28;20052;-67
2021/04/19 01:25:01;;;;;;;21.63;13.52;;;;;;;;;;5079500;28;20066;-66
2021/04/19 01:27:27;;;;;;;22.35;12.32;;;;;;;;;;5082034;28;20044;-67
2021/04/19 01:29:53;;;;;;;22.00;12.05;;;;;;;;;;5078935;28;20047;-67
2021/04/19 01:32:19;;;;;;;20.40;13.10;;;;;;;;;;5079490;28;20461;-66
2021/04/19 01:34:45;;;;;;;24.23;13.23;;;;;;;;;;5083432;28;20044;-66
2021/04/19 01:37:11;;;;;;;22.13;13.60;;;;;;;;;;5080224;28;20048;-66
2021/04/19 01:39:38;;;;;;;23.50;14.00;;;;;;;;;;5080062;28;20067;-66
2021/04/19 01:42:05;;;;;;;22.35;14.68;;;;;;;;;;5077338;28;20626;-66
2021/04/19 01:44:33;;;;;;;18.63;11.95;;;;;;;;;;5080839;28;20041;-64
2021/04/19 01:46:59;;;;;;;20.00;12.38;;;;;;;;;;5080687;28;20113;-67
2021/04/19 01:49:25;;;;;;;20.25;11.98;;;;;;;;;;5082200;28;20086;-66
2021/04/19 01:51:51;;;;;;;19.73;12.35;;;;;;;;;;5082913;28;20055;-66
2021/04/19 01:54:17;;;;;;;19.63;13.32;;;;;;;;;;5077255;28;20057;-66
2021/04/19 01:56:44;;;;;;;23.08;13.57;;;;;;;;;;5078374;28;20070;-66
2021/04/19 01:59:11;;;;;;;18.70;12.20;;;;;;;;;;5081751;28;20059;-66
2021/04/19 02:01:44;;;;;;;21.52;12.32;;;;;;;;;;5081167;28;20052;-66
2021/04/19 02:04:15;;;;;;;20.55;12.00;;;;;;;;;;5075105;28;20402;-66
2021/04/19 02:06:47;;;;;;;18.60;12.00;;;;;;;;;;5075296;28;20055;-66
2021/04/19 02:09:20;;;;;;;19.08;11.95;;;;;;;;;;5078850;28;20039;-66
2021/04/19 02:12:00;;;;;;;20.40;13.05;;;;;;;;;;5080196;28;20507;-67
2021/04/19 02:14:32;;;;;;;21.33;12.27;;;;;;;;;;5079653;28;20499;-66
2021/04/19 02:17:03;;;;;;;20.77;13.15;;;;;;;;;;5076375;28;20048;-67
2021/04/19 02:19:37;;;;;;;20.95;12.50;;;;;;;;;;5075595;28;20098;-66
2021/04/19 02:22:07;;;;;;;21.42;13.18;;;;;;;;;;5069993;28;20105;-66
2021/04/19 02:24:35;;;;;;;20.13;12.88;;;;;;;;;;5076919;28;20044;-66
2021/04/19 02:27:08;;;;;;;21.15;14.00;;;;;;;;;;5078319;28;20048;-64
2021/04/19 02:29:37;;;;;;;19.85;11.68;;;;;;;;;;5079467;28;20040;-64
2021/04/19 02:32:06;;;;;;;24.38;14.52;;;;;;;;;;5075209;28;20053;-64
2021/04/19 02:34:33;;;;;;;22.58;13.68;;;;;;;;;;5080086;28;20091;-64
2021/04/19 02:37:02;;;;;;;20.20;12.77;;;;;;;;;;5076853;28;20093;-64
2021/04/19 02:39:30;;;;;;;23.25;13.68;;;;;;;;;;5079750;28;20053;-64
2021/04/19 02:41:57;;;;;;;28.13;14.57;;;;;;;;;;5077087;28;20048;-64
2021/04/19 02:44:24;;;;;;;22.48;12.35;;;;;;;;;;5077213;28;20045;-64
2021/04/19 02:46:52;;;;;;;20.30;13.27;;;;;;;;;;5081611;28;20400;-66
2021/04/19 02:49:20;;;;;;;20.30;12.15;;;;;;;;;;5081612;28;20041;-64
2021/04/19 02:51:47;;;;;;;18.83;12.55;;;;;;;;;;5081932;28;20044;-64
2021/04/19 02:54:13;;;;;;;23.50;13.05;;;;;;;;;;5074749;28;20045;-64
2021/04/19 02:56:40;;;;;;;18.40;12.23;;;;;;;;;;5078916;28;20064;-65
2021/04/19 02:59:07;;;;;;;16.88;10.82;;;;;;;;;;5078473;28;20056;-64
2021/04/19 03:01:36;;;;;;;19.98;12.65;;;;;;;;;;5076981;28;20044;-64
2021/04/19 03:04:05;;;;;;;19.65;12.40;;;;;;;;;;5080994;28;20048;-65
2021/04/19 03:06:32;;;;;;;23.02;14.18;;;;;;;;;;5077681;28;20040;-66
2021/04/19 03:09:00;;;;;;;21.65;14.13;;;;;;;;;;5081188;28;20060;-64
2021/04/19 03:11:28;;;;;;;22.10;13.77;;;;;;;;;;5073005;28;20477;-65
2021/04/19 03:13:56;;;;;;;24.02;14.55;;;;;;;;;;5081527;28;20618;-65
2021/04/19 03:16:24;;;;;;;22.88;14.80;;;;;;;;;;5076407;28;20048;-65
2021/04/19 03:18:52;;;;;;;20.70;11.90;;;;;;;;;;5079518;28;20048;-65
2021/04/19 03:21:19;;;;;;;23.15;14.98;;;;;;;;;;5075993;28;20057;-65
2021/04/19 03:23:48;;;;;;;21.25;14.48;;;;;;;;;;5073009;28;20097;-65
2021/04/19 03:26:16;;;;;;;18.90;12.65;;;;;;;;;;5072265;28;20090;-65
2021/04/19 03:28:44;;;;;;;21.67;12.65;;;;;;;;;;5078004;28;20051;-64
2021/04/19 03:31:15;;;;;;;21.67;12.27;;;;;;;;;;5073601;28;20052;-65
2021/04/19 03:33:42;;;;;;;17.27;12.05;;;;;;;;;;5081960;28;20044;-65
2021/04/19 03:36:11;;;;;;;20.80;12.93;;;;;;;;;;5081384;28;20052;-65
2021/04/19 03:38:38;;;;;;;23.02;13.55;;;;;;;;;;5085584;28;20048;-65
2021/04/19 03:41:05;;;;;;;21.90;15.05;;;;;;;;;;5084089;28;20478;-65
2021/04/19 03:43:31;;;;;;;22.52;13.25;;;;;;;;;;5080538;28;20102;-65
2021/04/19 03:46:02;;;;;;;21.95;13.40;;;;;;;;;;5085791;28;20512;-65
2021/04/19 03:48:29;;;;;;;22.55;13.82;;;;;;;;;;5083230;28;20060;-65
2021/04/19 03:50:56;;;;;;;22.15;13.18;;;;;;;;;;5080437;28;20497;-65
2021/04/19 03:53:25;;;;;;;25.63;14.77;;;;;;;;;;5079199;28;20476;-65
2021/04/19 03:55:51;;;;;;;25.52;13.70;;;;;;;;;;5077766;28;20051;-65
2021/04/19 03:58:18;;;;;;;26.15;13.18;;;;;;;;;;5083806;28;20055;-65
2021/04/19 04:00:46;;;;;;;24.98;14.20;;;;;;;;;;5076694;28;20083;-64
2021/04/19 04:03:12;;;;;;;26.08;13.65;;;;;;;;;;5075326;28;20072;-65
2021/04/19 04:05:38;;;;;;;22.33;13.63;;;;;;;;;;5074994;28;20053;-65
2021/04/19 04:08:06;;;;;;;27.60;16.48;;;;;;;;;;5076102;28;20044;-65
2021/04/19 04:10:34;;;;;;;22.75;13.73;;;;;;;;;;5073301;28;20087;-66
2021/04/19 04:13:00;;;;;;;23.10;13.50;;;;;;;;;;5074757;28;20519;-65
2021/04/19 04:15:26;;;;;;;22.17;12.82;;;;;;;;;;5078336;28;20432;-65
2021/04/19 04:17:52;;;;;;;20.38;11.90;;;;;;;;;;5081413;28;20067;-65
2021/04/19 04:20:18;;;;;;;22.10;13.15;;;;;;;;;;5078975;28;20053;-65
2021/04/19 04:22:44;;;;;;;22.05;13.10;;;;;;;;;;5076538;28;20049;-65
2021/04/19 04:25:11;;;;;;;20.08;12.30;;;;;;;;;;5075645;28;20067;-64
2021/04/19 04:27:38;;;;;;;22.92;13.80;;;;;;;;;;5082459;28;20131;-64
2021/04/19 04:30:05;;;;;;;23.13;13.02;;;;;;;;;;5084773;28;20051;-64
2021/04/19 04:32:31;;;;;;;20.73;12.60;;;;;;;;;;5083010;28;20056;-64
2021/04/19 04:34:57;;;;;;;19.55;12.00;;;;;;;;;;5088777;28;20134;-64
2021/04/19 04:37:23;;;;;;;23.20;13.63;;;;;;;;;;5082342;28;20130;-64
2021/04/19 04:39:49;;;;;;;22.38;13.73;;;;;;;;;;5084123;28;20083;-64
2021/04/19 04:42:17;;;;;;;25.10;14.43;;;;;;;;;;5081791;28;20059;-65
2021/04/19 04:44:45;;;;;;;22.88;14.27;;;;;;;;;;5075560;28;20493;-65
2021/04/19 04:47:18;;;;;;;22.67;13.48;;;;;;;;;;5074206;28;20390;-64
2021/04/19 04:49:49;;;;;;;23.63;13.32;;;;;;;;;;5077890;28;20044;-64
2021/04/19 04:52:16;;;;;;;23.80;15.02;;;;;;;;;;5079766;28;20063;-64
2021/04/19 04:54:44;;;;;;;24.95;13.85;;;;;;;;;;5079093;28;20058;-65
2021/04/19 04:57:12;;;;;;;28.60;15.02;;;;;;;;;;5075737;28;20048;-65
2021/04/19 04:59:39;;;;;;;29.60;15.10;;;;;;;;;;5078510;28;20040;-65
2021/04/19 05:02:06;;;;;;;21.88;12.63;;;;;;;;;;5082348;28;20048;-65
2021/04/19 05:04:32;;;;;;;24.17;13.95;;;;;;;;;;5078021;28;20059;-65
2021/04/19 05:06:59;;;;;;;26.30;13.93;;;;;;;;;;5075371;28;20050;-66
2021/04/19 05:09:25;;;;;;;26.85;15.60;;;;;;;;;;5074330;28;20049;-66
2021/04/19 05:11:51;;;;;;;24.05;14.75;;;;;;;;;;5081338;28;20053;-66
2021/04/19 05:14:17;;;;;;;26.58;15.75;;;;;;;;;;5081448;28;20054;-66
2021/04/19 05:16:43;;;;;;;22.77;13.20;;;;;;;;;;5080670;28;20048;-66
2021/04/19 05:19:09;;;;;;;23.77;13.77;;;;;;;;;;5081317;28;20051;-66
2021/04/19 05:21:36;;;;;;;22.60;13.18;;;;;;;;;;5083116;28;20554;-66
2021/04/19 05:24:02;;;;;;;25.30;14.02;;;;;;;;;;5086928;28;20040;-66
2021/04/19 05:26:28;;;;;;;19.98;12.52;;;;;;;;;;5087214;28;20044;-66
2021/04/19 05:28:55;;;;;;;21.35;12.95;;;;;;;;;;5080603;28;20566;-67
2021/04/19 05:31:21;;;;;;;23.20;14.00;;;;;;;;;;5086340;28;20036;-66
2021/04/19 05:33:48;;;;;;;30.20;14.68;;;;;;;;;;5082831;28;20047;-66
2021/04/19 05:36:16;;;;;;;30.00;16.35;;;;;;;;;;5079682;28;20051;-66
2021/04/19 05:38:43;;;;;;;27.13;17.08;;;;;;;;;;5087687;28;20039;-66
2021/04/19 05:41:10;;;;;;;31.08;20.02;;;;;;;;;;5084079;28;20044;-66
2021/04/19 05:43:36;;;;;;;30.23;18.15;;;;;;;;;;5084871;28;20446;-66
2021/04/19 05:46:03;;;;;;;23.38;14.98;;;;;;;;;;5076011;28;20495;-66
2021/04/19 05:48:29;;;;;;;31.50;18.40;;;;;;;;;;5071022;28;20386;-66
2021/04/19 05:50:57;;;;;;;25.83;15.30;;;;;;;;;;5070584;28;20060;-66
2021/04/19 05:53:24;;;;;;;29.92;15.40;;;;;;;;;;5072624;28;20095;-66
2021/04/19 05:55:53;;;;;;;25.27;15.43;;;;;;;;;;5075971;28;20048;-66
2021/04/19 05:58:21;;;;;;;24.25;13.27;;;;;;;;;;5081367;28;20059;-66
2021/04/19 06:00:51;;;;;;;23.80;15.27;;;;;;;;;;5081775;28;20055;-66
2021/04/19 06:03:21;;;;;;;25.58;14.93;;;;;;;;;;5081982;28;20065;-66
2021/04/19 06:05:55;;;;;;;25.17;14.95;;;;;;;;;;5077542;28;20052;-67
2021/04/19 06:08:28;;;;;;;49.65;25.75;;;;;;;;;;5077867;28;20048;-66
2021/04/19 06:10:59;;;;;;;44.78;24.80;;;;;;;;;;5079762;28;20059;-65
2021/04/19 06:13:28;;;;;;;30.75;19.48;;;;;;;;;;5076247;28;20416;-65
2021/04/19 06:15:55;;;;;;;25.38;16.42;;;;;;;;;;5079023;28;20110;-67
2021/04/19 06:18:22;;;;;;;29.98;16.75;;;;;;;;;;5074464;28;20045;-66
2021/04/19 06:20:50;;;;;;;27.10;17.90;;;;;;;;;;5080263;28;20100;-67
2021/04/19 06:23:17;;;;;;;27.75;17.58;;;;;;;;;;5082066;28;22919;-67
2021/04/19 06:25:44;;;;;;;31.33;18.65;;;;;;;;;;5076639;28;20056;-66
2021/04/19 06:28:10;;;;;;;29.00;19.60;;;;;;;;;;5082047;28;20044;-69
2021/04/19 06:30:41;;;;;;;29.80;19.23;;;;;;;;;;5074457;28;20048;-67
2021/04/19 06:33:08;;;;;;;29.20;18.98;;;;;;;;;;5078668;28;20481;-65
2021/04/19 06:35:34;;;;;;;27.58;17.65;;;;;;;;;;5075469;28;20451;-69
2021/04/19 06:38:00;;;;;;;25.00;16.38;;;;;;;;;;5076118;28;20087;-68
2021/04/19 06:40:27;;;;;;;29.90;18.08;;;;;;;;;;5075816;28;20055;-66
2021/04/19 06:42:55;;;;;;;33.15;19.23;;;;;;;;;;5078586;28;20044;-65
2021/04/19 06:45:21;;;;;;;33.55;19.55;;;;;;;;;;5073554;28;20098;-65
2021/04/19 06:47:47;;;;;;;32.83;21.35;;;;;;;;;;5071697;28;20044;-65
2021/04/19 06:50:13;;;;;;;33.08;19.88;;;;;;;;;;5071583;28;20075;-65
2021/04/19 06:52:46;;;;;;;27.60;19.52;;;;;;;;;;5072291;28;20060;-65
2021/04/19 06:55:13;;;;;;;34.17;20.58;;;;;;;;;;5072970;28;20072;-65
2021/04/19 06:57:41;;;;;;;29.08;19.90;;;;;;;;;;5071544;28;20074;-65
2021/04/19 07:00:10;;;;;;;31.25;20.80;;;;;;;;;;5075678;28;20059;-65
2021/04/19 07:02:44;;;;;;;34.55;21.80;;;;;;;;;;5072947;28;20044;-65
2021/04/19 07:05:12;;;;;;;27.80;18.73;;;;;;;;;;5075025;28;20117;-66
2021/04/19 07:07:46;;;;;;;32.90;20.45;;;;;;;;;;5071892;28;20093;-65
2021/04/19 07:10:13;;;;;;;28.70;19.58;;;;;;;;;;5078352;28;20098;-66
2021/04/19 07:12:40;;;;;;;38.55;20.92;;;;;;;;;;5076490;28;20040;-66
2021/04/19 07:15:07;;;;;;;29.30;20.08;;;;;;;;;;5079669;28;20559;-66
2021/04/19 07:17:35;;;;;;;31.60;22.52;;;;;;;;;;5074104;28;20051;-66
2021/04/19 07:20:01;;;;;;;31.63;21.45;;;;;;;;;;5078727;28;20061;-65
2021/04/19 07:22:27;;;;;;;28.52;20.08;;;;;;;;;;5076116;28;20059;-65
2021/04/19 07:24:53;;;;;;;30.00;19.98;;;;;;;;;;5077198;28;20045;-65
2021/04/19 07:27:19;;;;;;;28.05;20.10;;;;;;;;;;5075399;28;20082;-65
2021/04/19 07:29:46;;;;;;;27.60;19.75;;;;;;;;;;5077492;28;20106;-65
2021/04/19 07:32:12;;;;;;;27.80;19.35;;;;;;;;;;5075725;28;20052;-66
2021/04/19 07:34:39;;;;;;;27.95;20.13;;;;;;;;;;5076712;28;20048;-66
2021/04/19 07:37:06;;;;;;;30.15;19.77;;;;;;;;;;5078795;28;20097;-66
2021/04/19 07:39:34;;;;;;;30.10;19.58;;;;;;;;;;5076901;28;20058;-65
2021/04/19 07:42:02;;;;;;;27.20;20.50;;;;;;;;;;5075351;28;20162;-65
2021/04/19 07:44:39;;;;;;;32.75;21.33;;;;;;;;;;5077577;28;21946;-67
2021/04/19 07:47:18;;;;;;;30.50;19.92;;;;;;;;;;5075141;28;20463;-67
2021/04/19 07:49:56;;;;;;;27.80;18.50;;;;;;;;;;5073968;28;20419;-64
2021/04/19 07:52:23;;;;;;;25.55;18.90;;;;;;;;;;5077355;28;20041;-66
2021/04/19 07:55:06;;;;;;;25.58;17.85;;;;;;;;;;5076438;28;20570;-65
2021/04/19 07:57:33;;;;;;;30.45;18.73;;;;;;;;;;5082206;28;20060;-65
2021/04/19 07:59:59;;;;;;;25.40;18.33;;;;;;;;;;5077367;28;20056;-65
2021/04/19 08:02:25;;;;;;;24.63;18.40;;;;;;;;;;5085353;28;20055;-65
2021/04/19 08:04:53;;;;;;;25.67;18.40;;;;;;;;;;5075348;28;20135;-66
2021/04/19 08:07:22;;;;;;;26.48;18.92;;;;;;;;;;5084006;28;20144;-65
2021/04/19 08:09:57;;;;;;;24.48;18.10;;;;;;;;;;5083019;28;20054;-66
2021/04/19 08:12:35;;;;;;;26.42;18.08;;;;;;;;;;5083925;28;20088;-65
2021/04/19 08:15:02;;;;;;;24.08;18.10;;;;;;;;;;5086126;28;20401;-65
2021/04/19 08:17:29;;;;;;;24.65;18.80;;;;;;;;;;5081409;28;20063;-67
2021/04/19 08:19:56;;;;;;;28.30;18.13;;;;;;;;;;5081262;28;20043;-65
2021/04/19 08:22:26;;;;;;;26.45;19.02;;;;;;;;;;5084344;28;20052;-66
2021/04/19 08:25:08;;;;;;;22.98;17.35;;;;;;;;;;5090296;28;20055;-65
2021/04/19 08:27:34;;;;;;;42.00;19.50;;;;;;;;;;5084372;28;20053;-64
2021/04/19 08:30:00;;;;;;;25.88;18.08;;;;;;;;;;5082816;28;20044;-66
2021/04/19 08:32:29;;;;;;;28.58;18.52;;;;;;;;;;5085200;28;20047;-65
2021/04/19 08:34:55;;;;;;;25.15;17.38;;;;;;;;;;5081039;28;20143;-66
2021/04/19 08:37:23;;;;;;;23.05;16.92;;;;;;;;;;5084794;28;20059;-66
2021/04/19 08:39:50;;;;;;;23.95;15.95;;;;;;;;;;5079647;28;20047;-67
2021/04/19 08:42:16;;;;;;;21.83;15.98;;;;;;;;;;5072139;28;20044;-64
2021/04/19 08:44:42;;;;;;;28.95;16.50;;;;;;;;;;5085821;28;20051;-64
2021/04/19 08:47:11;;;;;;;22.08;16.48;;;;;;;;;;5083043;28;20052;-66
2021/04/19 08:49:37;;;;;;;20.10;15.75;;;;;;;;;;5084620;28;20203;-67
2021/04/19 08:52:03;;;;;;;20.65;15.05;;;;;;;;;;5076445;28;20052;-66
2021/04/19 08:54:30;;;;;;;19.13;15.25;;;;;;;;;;5083929;28;20090;-65
2021/04/19 08:56:56;;;;;;;21.88;15.38;;;;;;;;;;5078876;28;20086;-68
2021/04/19 08:59:23;;;;;;;20.05;15.32;;;;;;;;;;5072271;28;20156;-65
2021/04/19 09:01:51;;;;;;;22.73;15.40;;;;;;;;;;5075060;28;20049;-66
2021/04/19 09:04:22;;;;;;;19.35;15.10;;;;;;;;;;5080040;28;20048;-64
2021/04/19 09:06:50;;;;;;;22.52;16.02;;;;;;;;;;5079677;28;20044;-66
2021/04/19 09:09:35;;;;;;;18.80;14.93;;;;;;;;;;5076054;28;20051;-67
2021/04/19 09:12:21;;;;;;;20.45;15.05;;;;;;;;;;5081561;28;20499;-67
2021/04/19 09:14:47;;;;;;;19.85;14.77;;;;;;;;;;5076530;28;20063;-65
2021/04/19 09:17:23;;;;;;;19.02;15.20;;;;;;;;;;5080098;28;20040;-67
2021/04/19 09:19:55;;;;;;;20.52;14.50;;;;;;;;;;5077067;28;20052;-65
2021/04/19 09:22:21;;;;;;;16.00;13.07;;;;;;;;;;5078896;28;20044;-67
2021/04/19 09:25:06;;;;;;;14.55;11.68;;;;;;;;;;5082209;28;20791;-65
2021/04/19 09:27:46;;;;;;;15.18;11.48;;;;;;;;;;5078404;28;20059;-66
2021/04/19 09:30:32;;;;;;;14.55;11.70;;;;;;;;;;5078740;28;20119;-64
2021/04/19 09:33:22;;;;;;;17.45;10.95;;;;;;;;;;5076873;28;20059;-64
2021/04/19 09:35:53;;;;;;;16.92;11.75;;;;;;;;;;5079458;28;20514;-64
2021/04/19 09:38:47;;;;;;;13.88;11.23;;;;;;;;;;5073841;28;20393;-65
2021/04/19 09:41:16;;;;;;;12.75;9.25;;;;;;;;;;5076066;28;20040;-66
2021/04/19 09:43:43;;;;;;;12.65;8.38;;;;;;;;;;5078320;28;20405;-66
2021/04/19 09:46:09;;;;;;;10.90;9.02;;;;;;;;;;5076518;28;20427;-65
2021/04/19 09:48:38;;;;;;;12.13;8.88;;;;;;;;;;5081887;28;20189;-64
2021/04/19 09:51:12;;;;;;;11.63;8.23;;;;;;;;;;5074989;28;20052;-64
2021/04/19 09:53:38;;;;;;;10.40;7.38;;;;;;;;;;5077828;28;20490;-65
2021/04/19 09:56:05;;;;;;;13.32;8.00;;;;;;;;;;5081944;28;20048;-66
2021/04/19 09:58:32;;;;;;;12.93;9.30;;;;;;;;;;5079356;28;20076;-65
2021/04/19 10:00:59;;;;;;;11.45;9.15;;;;;;;;;;5080120;28;20044;-65
2021/04/19 10:03:26;;;;;;;12.57;8.82;;;;;;;;;;5077829;28;20075;-66
2021/04/19 10:05:52;;;;;;;10.48;9.00;;;;;;;;;;5077249;28;20044;-66
2021/04/19 10:08:19;;;;;;;14.65;9.07;;;;;;;;;;5076611;28;20055;-65
2021/04/19 10:10:51;;;;;;;11.50;8.80;;;;;;;;;;5083808;28;20040;-64
2021/04/19 10:13:26;;;;;;;11.75;9.05;;;;;;;;;;5074899;28;20060;-67
2021/04/19 10:16:11;;;;;;;10.90;8.90;;;;;;;;;;5076176;28;20396;-64
2021/04/19 10:18:43;;;;;;;9.73;8.30;;;;;;;;;;5074454;28;20055;-67
2021/04/19 10:21:10;;;;;;;12.35;9.10;;;;;;;;;;5083648;28;20052;-64
2021/04/19 10:23:39;;;;;;;12.63;9.20;;;;;;;;;;5082546;28;20048;-65
2021/04/19 10:26:05;;;;;;;10.40;9.13;;;;;;;;;;5083124;28;20139;-65
2021/04/19 10:28:33;;;;;;;13.18;8.50;;;;;;;;;;5082581;28;20048;-65
2021/04/19 10:31:14;;;;;;;12.48;8.27;;;;;;;;;;5080834;28;20113;-65
2021/04/19 10:33:42;;;;;;;11.90;8.65;;;;;;;;;;5078781;28;20097;-65
2021/04/19 10:36:12;;;;;;;9.90;8.50;;;;;;;;;;5081828;28;20132;-66
2021/04/19 10:38:39;;;;;;;10.82;9.02;;;;;;;;;;5077057;28;20093;-66
2021/04/19 10:41:06;;;;;;;10.15;8.07;;;;;;;;;;5082872;28;20048;-66
2021/04/19 10:43:32;;;;;;;12.27;9.10;;;;;;;;;;5085590;28;20048;-65
2021/04/19 10:45:58;;;;;;;15.80;9.18;;;;;;;;;;5087541;28;20059;-65
2021/04/19 10:48:27;;;;;;;12.52;10.00;;;;;;;;;;5086306;28;20499;-65
2021/04/19 10:50:55;;;;;;;11.23;9.00;;;;;;;;;;5082099;28;20044;-65
2021/04/19 10:53:32;;;;;;;13.45;9.77;;;;;;;;;;5084071;28;20055;-66
2021/04/19 10:55:59;;;;;;;14.20;9.85;;;;;;;;;;5083407;28;20048;-64
2021/04/19 10:58:25;;;;;;;11.65;8.77;;;;;;;;;;5079612;28;20044;-66
2021/04/19 11:00:51;;;;;;;14.38;9.95;;;;;;;;;;5082806;28;20049;-64
2021/04/19 11:03:17;;;;;;;14.38;9.70;;;;;;;;;;5083423;28;20048;-64
2021/04/19 11:05:44;;;;;;;15.02;10.77;;;;;;;;;;5082577;28;20044;-63
2021/04/19 11:08:10;;;;;;;16.00;10.25;;;;;;;;;;5077239;28;20052;-64
2021/04/19 11:10:36;;;;;;;14.27;9.57;;;;;;;;;;5083382;28;20496;-64
2021/04/19 11:13:04;;;;;;;14.88;9.80;;;;;;;;;;5078873;28;20048;-63
2021/04/19 11:15:35;;;;;;;14.73;10.70;;;;;;;;;;5079876;28;20492;-64
2021/04/19 11:18:08;;;;;;;13.85;9.98;;;;;;;;;;5083551;28;20063;-64
2021/04/19 11:20:34;;;;;;;14.98;10.23;;;;;;;;;;5078518;28;20053;-67
2021/04/19 11:23:02;;;;;;;11.65;9.18;;;;;;;;;;5082376;28;20540;-68
2021/04/19 11:25:30;;;;;;;12.43;10.07;;;;;;;;;;5082730;28;20055;-65
2021/04/19 11:28:19;;;;;;;17.75;10.10;;;;;;;;;;5083803;28;20142;-65
2021/04/19 11:30:45;;;;;;;10.98;9.38;;;;;;;;;;5082213;28;20270;-66
2021/04/19 11:33:12;;;;;;;12.07;9.98;;;;;;;;;;5083293;28;20048;-64
2021/04/19 11:35:40;;;;;;;13.38;9.32;;;;;;;;;;5078649;28;20484;-64
2021/04/19 11:38:09;;;;;;;13.32;9.38;;;;;;;;;;5080457;28;20053;-64
2021/04/19 11:40:39;;;;;;;12.32;9.32;;;;;;;;;;5079063;28;20453;-64
2021/04/19 11:43:19;;;;;;;11.30;9.38;;;;;;;;;;5079026;28;20050;-64
2021/04/19 11:45:45;;;;;;;9.95;8.95;;;;;;;;;;5076854;28;20053;-64
2021/04/19 11:48:13;;;;;;;11.88;9.20;;;;;;;;;;5085963;28;20058;-66
2021/04/19 11:50:39;;;;;;;17.00;9.23;;;;;;;;;;5080348;28;20044;-67
2021/04/19 11:53:05;;;;;;;9.70;7.97;;;;;;;;;;5081076;28;20051;-64
2021/04/19 11:55:32;;;;;;;11.15;8.90;;;;;;;;;;5082464;28;20436;-64
2021/04/19 11:57:58;;;;;;;10.18;7.95;;;;;;;;;;5078667;28;20060;-65
2021/04/19 12:00:25;;;;;;;15.55;9.68;;;;;;;;;;5080896;28;20109;-63
2021/04/19 12:02:51;;;;;;;11.98;8.25;;;;;;;;;;5082395;28;20048;-63
2021/04/19 12:05:17;;;;;;;10.90;8.25;;;;;;;;;;5080917;28;20428;-64
2021/04/19 12:07:43;;;;;;;11.65;9.15;;;;;;;;;;5077744;28;20056;-64
2021/04/19 12:10:10;;;;;;;10.30;8.43;;;;;;;;;;5080468;28;20053;-64
2021/04/19 12:12:37;;;;;;;12.93;8.40;;;;;;;;;;5074574;28;20132;-64
2021/04/19 12:15:04;;;;;;;12.50;8.55;;;;;;;;;;5074344;28;20052;-64
2021/04/19 12:17:30;;;;;;;11.13;9.52;;;;;;;;;;5073620;28;20057;-64
2021/04/19 12:19:57;;;;;;;15.43;9.70;;;;;;;;;;5078138;28;20447;-64
2021/04/19 12:22:23;;;;;;;12.35;9.45;;;;;;;;;;5078503;28;20049;-64
2021/04/19 12:24:49;;;;;;;11.63;8.23;;;;;;;;;;5077490;28;20135;-64
2021/04/19 12:27:15;;;;;;;10.32;9.23;;;;;;;;;;5077697;28;20048;-64
2021/04/19 12:29:41;;;;;;;10.55;8.98;;;;;;;;;;5078001;28;20127;-64
2021/04/19 12:32:07;;;;;;;12.68;9.27;;;;;;;;;;5075684;28;20469;-64
2021/04/19 12:34:33;;;;;;;9.85;8.65;;;;;;;;;;5073573;28;20071;-64
2021/04/19 12:36:59;;;;;;;13.95;10.27;;;;;;;;;;5077292;28;20448;-64
2021/04/19 12:39:26;;;;;;;17.08;10.65;;;;;;;;;;5077839;28;20052;-64
2021/04/19 12:41:52;;;;;;;12.68;9.43;;;;;;;;;;5076131;28;20489;-64
2021/04/19 12:44:18;;;;;;;11.13;9.32;;;;;;;;;;5077657;28;20044;-64
2021/04/19 12:46:45;;;;;;;13.25;9.27;;;;;;;;;;5080274;28;20056;-67
2021/04/19 12:49:13;;;;;;;12.18;9.20;;;;;;;;;;5077834;28;20134;-66
2021/04/19 12:51:39;;;;;;;12.57;9.07;;;;;;;;;;5076503;28;20044;-65
2021/04/19 12:54:07;;;;;;;10.70;8.32;;;;;;;;;;5077832;28;20044;-64
2021/04/19 12:56:33;;;;;;;10.35;8.63;;;;;;;;;;5072296;28;20048;-65
2021/04/19 12:58:59;;;;;;;11.30;8.48;;;;;;;;;;5074969;28;20048;-67
2021/04/19 13:01:25;;;;;;;11.93;8.50;;;;;;;;;;5070701;28;20737;-65
2021/04/19 13:03:51;;;;;;;12.55;9.07;;;;;;;;;;5073085;28;20052;-65
2021/04/19 13:06:17;;;;;;;10.93;8.82;;;;;;;;;;5073578;28;20492;-65
2021/04/19 13:08:43;;;;;;;11.73;8.63;;;;;;;;;;5074461;28;20079;-65
2021/04/19 13:11:09;;;;;;;10.25;7.90;;;;;;;;;;5078934;28;20052;-64
2021/04/19 13:13:35;;;;;;;13.13;9.38;;;;;;;;;;5073536;28;20048;-63
2021/04/19 13:16:02;;;;;;;13.27;10.05;;;;;;;;;;5072549;28;20087;-64
2021/04/19 13:18:28;;;;;;;13.45;10.38;;;;;;;;;;5076605;28;20057;-64
2021/04/19 13:20:54;;;;;;;13.88;11.40;;;;;;;;;;5076898;28;20064;-68
2021/04/19 13:23:21;;;;;;;13.90;11.63;;;;;;;;;;5073299;28;20056;-65
2021/04/19 13:25:47;;;;;;;16.30;12.77;;;;;;;;;;5072914;28;20055;-69
2021/04/19 13:28:13;;;;;;;15.00;12.10;;;;;;;;;;5080460;28;20138;-65
2021/04/19 13:30:38;;;;;;;17.02;12.90;;;;;;;;;;5078023;28;20130;-65
2021/04/19 13:33:05;;;;;;;18.67;15.00;;;;;;;;;;5079266;28;20127;-67
2021/04/19 13:35:31;;;;;;;19.42;15.43;;;;;;;;;;5080584;28;20045;-66
2021/04/19 13:37:58;;;;;;;21.70;17.23;;;;;;;;;;5087325;28;20060;-67
2021/04/19 13:40:24;;;;;;;24.17;18.05;;;;;;;;;;5076263;28;20135;-65
2021/04/19 13:42:50;;;;;;;23.10;18.63;;;;;;;;;;5086127;28;20044;-66
2021/04/19 13:45:18;;;;;;;23.48;18.00;;;;;;;;;;5079410;28;20040;-66
2021/04/19 13:47:44;;;;;;;22.60;17.30;;;;;;;;;;5077084;28;20483;-68
2021/04/19 13:50:11;;;;;;;20.45;16.45;;;;;;;;;;5077761;28;20395;-67
2021/04/19 13:52:37;;;;;;;19.50;15.43;;;;;;;;;;5072180;28;20063;-67
2021/04/19 13:55:05;;;;;;;22.83;18.20;;;;;;;;;;5078628;28;20089;-65
2021/04/19 13:57:32;;;;;;;20.65;15.60;;;;;;;;;;5080990;28;20066;-65
2021/04/19 13:59:58;;;;;;;19.70;15.95;;;;;;;;;;5086915;28;20044;-66
2021/04/19 14:02:24;;;;;;;20.20;15.38;;;;;;;;;;5083516;28;20395;-65
2021/04/19 14:04:50;;;;;;;20.38;15.63;;;;;;;;;;5079736;28;20048;-66
2021/04/19 14:07:16;;;;;;;20.27;15.20;;;;;;;;;;5085936;28;20047;-65
2021/04/19 14:09:42;;;;;;;20.10;15.65;;;;;;;;;;5079799;28;20071;-67
2021/04/19 14:12:10;;;;;;;21.02;16.73;;;;;;;;;;5083873;28;20384;-65
2021/04/19 14:14:37;;;;;;;19.45;15.75;;;;;;;;;;5078483;28;20041;-68
2021/04/19 14:17:03;;;;;;;20.63;15.85;;;;;;;;;;5074636;28;20180;-68
2021/04/19 14:19:30;;;;;;;21.70;15.98;;;;;;;;;;5081928;28;20140;-65
2021/04/19 14:21:56;;;;;;;19.92;16.48;;;;;;;;;;5081213;28;20109;-65
2021/04/19 14:24:22;;;;;;;20.88;15.07;;;;;;;;;;5074785;28;20048;-65
2021/04/19 14:26:48;;;;;;;22.02;16.08;;;;;;;;;;5076391;28;20048;-65